sensor_id;sensor_type;location;lat;lon;timestamp;pressure;altitude;pressure_sealevel;temperature;humidity
64668;BME280;51077;42.716;23.344;2023-03-20T00:01:28;95673.69;;;11.95;39.05
64668;BME280;51077;42.716;23.344;2023-03-20T00:03:54;95675.44;;;11.93;39.09
64668;BME280;51077;42.716;23.344;2023-03-20T00:06:25;95674.47;;;11.90;39.23
64668;BME280;51077;42.716;23.344;2023-03-20T00:08:53;95673.47;;;11.88;39.03
64668;BME280;51077;42.716;23.344;2023-03-20T00:13:52;95678.00;;;11.85;39.25
64668;BME280;51077;42.716;23.344;2023-03-20T00:16:19;95669.25;;;11.81;39.37
64668;BME280;51077;42.716;23.344;2023-03-20T00:18:45;95676.00;;;11.80;39.21
64668;BME280;51077;42.716;23.344;2023-03-20T00:21:16;95668.03;;;11.76;39.46
64668;BME280;51077;42.716;23.344;2023-03-20T00:23:42;95664.28;;;11.74;39.66
64668;BME280;51077;42.716;23.344;2023-03-20T00:26:15;95661.81;;;11.70;39.64
64668;BME280;51077;42.716;23.344;2023-03-20T00:28:47;95668.34;;;11.67;39.59
64668;BME280;51077;42.716;23.344;2023-03-20T00:31:21;95659.63;;;11.63;39.51
64668;BME280;51077;42.716;23.344;2023-03-20T00:33:48;95664.13;;;11.61;39.48
64668;BME280;51077;42.716;23.344;2023-03-20T00:36:14;95668.66;;;11.58;39.68
64668;BME280;51077;42.716;23.344;2023-03-20T00:38:39;95666.91;;;11.55;39.75
64668;BME280;51077;42.716;23.344;2023-03-20T00:41:19;95663.69;;;11.51;39.76
64668;BME280;51077;42.716;23.344;2023-03-20T00:43:47;95657.19;;;11.48;39.84
64668;BME280;51077;42.716;23.344;2023-03-20T00:46:13;95657.44;;;11.45;39.91
64668;BME280;51077;42.716;23.344;2023-03-20T00:48:40;95656.47;;;11.42;39.90
64668;BME280;51077;42.716;23.344;2023-03-20T00:51:07;95655.47;;;11.40;39.83
64668;BME280;51077;42.716;23.344;2023-03-20T00:53:33;95664.75;;;11.37;39.97
64668;BME280;51077;42.716;23.344;2023-03-20T00:55:58;95655.50;;;11.34;40.11
64668;BME280;51077;42.716;23.344;2023-03-20T00:58:24;95658.03;;;11.32;39.83
64668;BME280;51077;42.716;23.344;2023-03-20T01:00:50;95655.78;;;11.30;39.98
64668;BME280;51077;42.716;23.344;2023-03-20T01:03:18;95647.03;;;11.26;40.06
64668;BME280;51077;42.716;23.344;2023-03-20T01:05:44;95648.81;;;11.24;40.15
64668;BME280;51077;42.716;23.344;2023-03-20T01:10:40;95637.34;;;11.20;39.92
64668;BME280;51077;42.716;23.344;2023-03-20T01:13:18;95642.84;;;11.20;40.03
64668;BME280;51077;42.716;23.344;2023-03-20T01:15:43;95632.88;;;11.17;40.03
64668;BME280;51077;42.716;23.344;2023-03-20T01:18:12;95632.63;;;11.15;40.18
64668;BME280;51077;42.716;23.344;2023-03-20T01:20:38;95625.91;;;11.10;40.08
64668;BME280;51077;42.716;23.344;2023-03-20T01:23:04;95625.91;;;11.10;40.20
64668;BME280;51077;42.716;23.344;2023-03-20T01:25:29;95633.38;;;11.10;40.14
64668;BME280;51077;42.716;23.344;2023-03-20T01:27:55;95626.19;;;11.06;40.11
64668;BME280;51077;42.716;23.344;2023-03-20T01:30:28;95630.94;;;11.06;40.33
64668;BME280;51077;42.716;23.344;2023-03-20T01:32:54;95638.91;;;11.04;40.23
64668;BME280;51077;42.716;23.344;2023-03-20T01:35:22;95637.41;;;11.03;40.17
64668;BME280;51077;42.716;23.344;2023-03-20T01:37:48;95641.44;;;11.02;40.27
64668;BME280;51077;42.716;23.344;2023-03-20T01:40:31;95636.41;;;11.00;40.29
64668;BME280;51077;42.716;23.344;2023-03-20T01:42:59;95639.44;;;10.97;40.29
64668;BME280;51077;42.716;23.344;2023-03-20T01:45:32;95644.19;;;10.96;40.38
64668;BME280;51077;42.716;23.344;2023-03-20T01:47:58;95641.19;;;10.94;40.49
64668;BME280;51077;42.716;23.344;2023-03-20T01:50:26;95647.94;;;10.93;40.54
64668;BME280;51077;42.716;23.344;2023-03-20T01:52:57;95646.94;;;10.91;40.64
64668;BME280;51077;42.716;23.344;2023-03-20T01:55:24;95643.72;;;10.87;40.61
64668;BME280;51077;42.716;23.344;2023-03-20T01:57:51;95644.97;;;10.86;40.55
64668;BME280;51077;42.716;23.344;2023-03-20T02:00:18;95644.72;;;10.83;40.77
64668;BME280;51077;42.716;23.344;2023-03-20T02:02:45;95641.75;;;10.81;40.62
64668;BME280;51077;42.716;23.344;2023-03-20T02:05:12;95640.75;;;10.79;40.76
64668;BME280;51077;42.716;23.344;2023-03-20T02:07:40;95631.28;;;10.74;40.81
64668;BME280;51077;42.716;23.344;2023-03-20T02:10:11;95642.03;;;10.72;40.76
64668;BME280;51077;42.716;23.344;2023-03-20T02:12:37;95636.78;;;10.69;40.77
64668;BME280;51077;42.716;23.344;2023-03-20T02:15:04;95633.53;;;10.65;41.04
64668;BME280;51077;42.716;23.344;2023-03-20T02:17:30;95635.28;;;10.62;40.90
64668;BME280;51077;42.716;23.344;2023-03-20T02:20:21;95638.53;;;10.61;41.10
64668;BME280;51077;42.716;23.344;2023-03-20T02:34:29;95649.06;;;10.45;41.11
64668;BME280;51077;42.716;23.344;2023-03-20T02:43:14;95634.34;;;10.31;41.43
64668;BME280;51077;42.716;23.344;2023-03-20T02:46:01;95627.88;;;10.29;41.18
64668;BME280;51077;42.716;23.344;2023-03-20T02:53:39;95623.59;;;10.22;41.34
64668;BME280;51077;42.716;23.344;2023-03-20T02:56:17;95618.63;;;10.21;41.58
64668;BME280;51077;42.716;23.344;2023-03-20T02:58:54;95627.13;;;10.17;41.66
64668;BME280;51077;42.716;23.344;2023-03-20T03:04:35;95625.13;;;10.12;41.73
64668;BME280;51077;42.716;23.344;2023-03-20T03:07:04;95626.38;;;10.11;41.70
64668;BME280;51077;42.716;23.344;2023-03-20T03:09:41;95624.88;;;10.10;41.80
64668;BME280;51077;42.716;23.344;2023-03-20T03:12:21;95625.38;;;10.08;41.74
64668;BME280;51077;42.716;23.344;2023-03-20T03:14:51;95632.09;;;10.07;41.72
64668;BME280;51077;42.716;23.344;2023-03-20T03:17:20;95627.63;;;10.04;41.59
64668;BME280;51077;42.716;23.344;2023-03-20T03:19:54;95630.34;;;10.04;41.72
64668;BME280;51077;42.716;23.344;2023-03-20T03:22:22;95620.16;;;9.99;41.75
64668;BME280;51077;42.716;23.344;2023-03-20T03:24:50;95624.88;;;9.99;41.60
64668;BME280;51077;42.716;23.344;2023-03-20T03:27:18;95626.88;;;9.98;41.78
64668;BME280;51077;42.716;23.344;2023-03-20T03:29:49;95623.88;;;9.96;41.69
64668;BME280;51077;42.716;23.344;2023-03-20T03:32:25;95624.63;;;9.97;41.81
64668;BME280;51077;42.716;23.344;2023-03-20T03:34:52;95623.63;;;9.94;41.59
64668;BME280;51077;42.716;23.344;2023-03-20T03:37:25;95626.88;;;9.93;41.83
64668;BME280;51077;42.716;23.344;2023-03-20T03:40:17;95624.63;;;9.91;41.81
64668;BME280;51077;42.716;23.344;2023-03-20T03:43:02;95623.13;;;9.90;41.86
64668;BME280;51077;42.716;23.344;2023-03-20T03:45:38;95623.66;;;9.89;41.83
64668;BME280;51077;42.716;23.344;2023-03-20T03:48:06;95627.13;;;9.83;42.00
64668;BME280;51077;42.716;23.344;2023-03-20T03:50:40;95627.13;;;9.83;41.80
64668;BME280;51077;42.716;23.344;2023-03-20T03:53:12;95619.41;;;9.82;41.86
64668;BME280;51077;42.716;23.344;2023-03-20T03:55:44;95619.41;;;9.82;42.00
64668;BME280;51077;42.716;23.344;2023-03-20T04:00:43;95620.16;;;9.77;42.07
64668;BME280;51077;42.716;23.344;2023-03-20T04:03:12;95619.88;;;9.75;42.04
64668;BME280;51077;42.716;23.344;2023-03-20T04:05:41;95617.66;;;9.73;42.10
64668;BME280;51077;42.716;23.344;2023-03-20T04:08:07;95618.16;;;9.72;42.05
64668;BME280;51077;42.716;23.344;2023-03-20T04:10:33;95613.94;;;9.71;42.24
64668;BME280;51077;42.716;23.344;2023-03-20T04:12:59;95614.16;;;9.67;42.16
64668;BME280;51077;42.716;23.344;2023-03-20T04:15:24;95606.41;;;9.66;42.10
64668;BME280;51077;42.716;23.344;2023-03-20T04:17:51;95603.44;;;9.64;42.13
64668;BME280;51077;42.716;23.344;2023-03-20T04:20:17;95611.66;;;9.64;42.23
64668;BME280;51077;42.716;23.344;2023-03-20T04:22:43;95601.69;;;9.61;42.32
64668;BME280;51077;42.716;23.344;2023-03-20T04:25:13;95604.19;;;9.59;42.21
64668;BME280;51077;42.716;23.344;2023-03-20T04:27:40;95599.94;;;9.57;42.24
64668;BME280;51077;42.716;23.344;2023-03-20T04:30:06;95603.91;;;9.56;42.27
64668;BME280;51077;42.716;23.344;2023-03-20T04:32:32;95614.66;;;9.54;42.33
64668;BME280;51077;42.716;23.344;2023-03-20T04:34:57;95615.38;;;9.55;42.38
64668;BME280;51077;42.716;23.344;2023-03-20T04:37:22;95619.84;;;9.52;42.46
64668;BME280;51077;42.716;23.344;2023-03-20T04:39:48;95611.63;;;9.52;42.43
64668;BME280;51077;42.716;23.344;2023-03-20T04:42:13;95616.63;;;9.54;42.48
64668;BME280;51077;42.716;23.344;2023-03-20T04:44:39;95627.34;;;9.57;42.36
64668;BME280;51077;42.716;23.344;2023-03-20T04:47:04;95635.81;;;9.60;42.42
64668;BME280;51077;42.716;23.344;2023-03-20T04:49:29;95637.81;;;9.65;42.42
64668;BME280;51077;42.716;23.344;2023-03-20T04:51:55;95637.06;;;9.70;42.30
64668;BME280;51077;42.716;23.344;2023-03-20T04:54:20;95640.59;;;9.76;42.10
64668;BME280;51077;42.716;23.344;2023-03-20T04:56:46;95641.84;;;9.80;42.26
64668;BME280;51077;42.716;23.344;2023-03-20T04:59:11;95641.59;;;9.84;42.00
64668;BME280;51077;42.716;23.344;2023-03-20T05:01:37;95642.06;;;9.88;42.07
64668;BME280;51077;42.716;23.344;2023-03-20T05:04:02;95642.31;;;9.96;42.22
64668;BME280;51077;42.716;23.344;2023-03-20T05:06:29;95642.81;;;10.00;41.82
64668;BME280;51077;42.716;23.344;2023-03-20T05:08:56;95646.06;;;10.04;41.90
64668;BME280;51077;42.716;23.344;2023-03-20T05:11:23;95649.06;;;10.06;42.00
64668;BME280;51077;42.716;23.344;2023-03-20T05:13:49;95644.84;;;10.11;41.76
64668;BME280;51077;42.716;23.344;2023-03-20T05:16:15;95653.56;;;10.15;41.69
64668;BME280;51077;42.716;23.344;2023-03-20T05:18:40;95651.56;;;10.21;41.80
64668;BME280;51077;42.716;23.344;2023-03-20T05:21:06;95655.56;;;10.25;41.59
64668;BME280;51077;42.716;23.344;2023-03-20T05:23:32;95654.81;;;10.30;41.45
64668;BME280;51077;42.716;23.344;2023-03-20T05:25:57;95663.06;;;10.36;41.42
64668;BME280;51077;42.716;23.344;2023-03-20T05:28:22;95658.53;;;10.44;41.41
64668;BME280;51077;42.716;23.344;2023-03-20T05:30:48;95650.56;;;10.46;41.54
64668;BME280;51077;42.716;23.344;2023-03-20T05:33:13;95659.78;;;10.54;41.25
64668;BME280;51077;42.716;23.344;2023-03-20T05:35:39;95657.00;;;10.60;41.23
64668;BME280;51077;42.716;23.344;2023-03-20T05:38:05;95658.50;;;10.67;41.01
64668;BME280;51077;42.716;23.344;2023-03-20T05:40:30;95668.72;;;10.72;41.07
64668;BME280;51077;42.716;23.344;2023-03-20T05:42:55;95664.44;;;10.82;40.82
64668;BME280;51077;42.716;23.344;2023-03-20T05:45:21;95668.91;;;10.91;40.89
64668;BME280;51077;42.716;23.344;2023-03-20T05:47:46;95674.38;;;11.02;40.56
64668;BME280;51077;42.716;23.344;2023-03-20T05:50:12;95673.59;;;11.13;40.46
64668;BME280;51077;42.716;23.344;2023-03-20T05:52:37;95666.53;;;11.23;40.48
64668;BME280;51077;42.716;23.344;2023-03-20T05:55:03;95673.75;;;11.37;40.17
64668;BME280;51077;42.716;23.344;2023-03-20T05:57:29;95671.41;;;11.52;39.97
64668;BME280;51077;42.716;23.344;2023-03-20T05:59:54;95681.09;;;11.65;39.85
64668;BME280;51077;42.716;23.344;2023-03-20T06:02:20;95678.00;;;11.79;39.69
64668;BME280;51077;42.716;23.344;2023-03-20T06:04:45;95669.19;;;11.92;39.57
64668;BME280;51077;42.716;23.344;2023-03-20T06:07:10;95670.59;;;12.04;39.15
64668;BME280;51077;42.716;23.344;2023-03-20T06:09:36;95666.28;;;12.15;39.38
64668;BME280;51077;42.716;23.344;2023-03-20T06:12:01;95669.41;;;12.30;38.93
64668;BME280;51077;42.716;23.344;2023-03-20T06:14:27;95670.34;;;12.38;38.66
64668;BME280;51077;42.716;23.344;2023-03-20T06:16:52;95673.22;;;12.51;38.64
64668;BME280;51077;42.716;23.344;2023-03-20T06:19:19;95679.06;;;12.67;38.48
64668;BME280;51077;42.716;23.344;2023-03-20T06:21:46;95669.44;;;12.79;38.07
64668;BME280;51077;42.716;23.344;2023-03-20T06:24:11;95680.81;;;12.94;38.06
64668;BME280;51077;42.716;23.344;2023-03-20T06:26:36;95667.13;;;13.07;37.97
64668;BME280;51077;42.716;23.344;2023-03-20T06:29:02;95664.25;;;13.19;37.72
64668;BME280;51077;42.716;23.344;2023-03-20T06:31:27;95665.88;;;13.33;37.63
64668;BME280;51077;42.716;23.344;2023-03-20T06:33:53;95671.47;;;13.46;37.38
64668;BME280;51077;42.716;23.344;2023-03-20T06:36:18;95666.53;;;13.58;37.21
64668;BME280;51077;42.716;23.344;2023-03-20T06:38:44;95678.91;;;13.70;37.10
64668;BME280;51077;42.716;23.344;2023-03-20T06:41:10;95674.44;;;13.86;36.82
64668;BME280;51077;42.716;23.344;2023-03-20T06:43:35;95668.97;;;13.99;36.80
64668;BME280;51077;42.716;23.344;2023-03-20T06:46:01;95675.81;;;14.12;36.59
64668;BME280;51077;42.716;23.344;2023-03-20T06:48:27;95675.13;;;14.24;36.48
64668;BME280;51077;42.716;23.344;2023-03-20T06:50:52;95669.31;;;14.41;36.24
64668;BME280;51077;42.716;23.344;2023-03-20T06:53:18;95660.97;;;14.60;35.88
64668;BME280;51077;42.716;23.344;2023-03-20T06:55:50;95660.47;;;14.75;35.71
64668;BME280;51077;42.716;23.344;2023-03-20T06:58:16;95660.91;;;14.92;35.52
64668;BME280;51077;42.716;23.344;2023-03-20T07:00:41;95662.59;;;15.08;35.26
64668;BME280;51077;42.716;23.344;2023-03-20T07:03:07;95666.94;;;15.30;34.96
64668;BME280;51077;42.716;23.344;2023-03-20T07:05:33;95656.81;;;15.46;34.94
64668;BME280;51077;42.716;23.344;2023-03-20T07:07:58;95665.97;;;15.68;34.70
64668;BME280;51077;42.716;23.344;2023-03-20T07:10:24;95656.53;;;15.84;34.51
64668;BME280;51077;42.716;23.344;2023-03-20T07:12:49;95666.69;;;16.02;34.24
64668;BME280;51077;42.716;23.344;2023-03-20T07:15:16;95660.00;;;16.19;34.03
64668;BME280;51077;42.716;23.344;2023-03-20T07:17:41;95651.28;;;16.36;33.76
64668;BME280;51077;42.716;23.344;2023-03-20T07:20:09;95648.31;;;16.54;33.65
64668;BME280;51077;42.716;23.344;2023-03-20T07:22:35;95651.41;;;16.72;33.34
64668;BME280;51077;42.716;23.344;2023-03-20T07:25:00;95656.00;;;16.90;33.12
64668;BME280;51077;42.716;23.344;2023-03-20T07:27:26;95650.38;;;17.11;32.96
64668;BME280;51077;42.716;23.344;2023-03-20T07:29:52;95653.06;;;17.32;32.65
64668;BME280;51077;42.716;23.344;2023-03-20T07:32:17;95652.63;;;17.56;32.47
64668;BME280;51077;42.716;23.344;2023-03-20T07:34:43;95652.53;;;17.77;32.19
64668;BME280;51077;42.716;23.344;2023-03-20T07:37:08;95653.69;;;17.97;31.93
64668;BME280;51077;42.716;23.344;2023-03-20T07:39:34;95644.84;;;18.14;31.85
64668;BME280;51077;42.716;23.344;2023-03-20T07:42:00;95651.16;;;18.30;31.66
64668;BME280;51077;42.716;23.344;2023-03-20T07:44:25;95653.19;;;18.45;31.40
64668;BME280;51077;42.716;23.344;2023-03-20T07:46:51;95650.59;;;18.62;31.22
64668;BME280;51077;42.716;23.344;2023-03-20T07:49:16;95648.75;;;18.80;31.08
64668;BME280;51077;42.716;23.344;2023-03-20T07:51:43;95654.84;;;19.01;30.75
64668;BME280;51077;42.716;23.344;2023-03-20T07:54:09;95661.13;;;19.25;30.53
64668;BME280;51077;42.716;23.344;2023-03-20T07:56:34;95654.19;;;19.49;30.47
64668;BME280;51077;42.716;23.344;2023-03-20T07:58:59;95646.50;;;19.72;30.19
64668;BME280;51077;42.716;23.344;2023-03-20T08:01:25;95657.16;;;19.99;29.70
64668;BME280;51077;42.716;23.344;2023-03-20T08:03:50;95652.34;;;20.24;29.69
64668;BME280;51077;42.716;23.344;2023-03-20T08:06:16;95655.16;;;20.49;29.54
64668;BME280;51077;42.716;23.344;2023-03-20T08:08:41;95647.50;;;20.75;29.01
64668;BME280;51077;42.716;23.344;2023-03-20T08:11:07;95657.50;;;21.03;28.91
64668;BME280;51077;42.716;23.344;2023-03-20T08:13:32;95655.34;;;21.28;28.30
64668;BME280;51077;42.716;23.344;2023-03-20T08:15:57;95653.97;;;21.54;28.15
64668;BME280;51077;42.716;23.344;2023-03-20T08:18:23;95645.34;;;21.77;28.17
64668;BME280;51077;42.716;23.344;2023-03-20T08:20:48;95654.88;;;22.01;27.74
64668;BME280;51077;42.716;23.344;2023-03-20T08:23:15;95647.69;;;22.25;27.55
64668;BME280;51077;42.716;23.344;2023-03-20T08:25:41;95649.41;;;22.48;27.24
64668;BME280;51077;42.716;23.344;2023-03-20T08:28:06;95649.63;;;22.69;27.15
64668;BME280;51077;42.716;23.344;2023-03-20T08:30:31;95645.72;;;22.92;27.03
64668;BME280;51077;42.716;23.344;2023-03-20T08:32:57;95648.28;;;23.17;26.93
64668;BME280;51077;42.716;23.344;2023-03-20T08:35:23;95651.38;;;23.40;26.36
64668;BME280;51077;42.716;23.344;2023-03-20T08:37:48;95645.50;;;23.65;26.32
64668;BME280;51077;42.716;23.344;2023-03-20T08:40:14;95645.19;;;23.90;26.29
64668;BME280;51077;42.716;23.344;2023-03-20T08:42:39;95644.22;;;24.17;25.79
64668;BME280;51077;42.716;23.344;2023-03-20T08:45:05;95646.53;;;24.40;25.63
64668;BME280;51077;42.716;23.344;2023-03-20T08:47:31;95640.53;;;24.65;25.18
64668;BME280;51077;42.716;23.344;2023-03-20T08:49:56;95645.84;;;24.92;25.08
64668;BME280;51077;42.716;23.344;2023-03-20T08:52:22;95641.13;;;25.16;24.79
64668;BME280;51077;42.716;23.344;2023-03-20T08:54:47;95640.91;;;25.45;24.77
64668;BME280;51077;42.716;23.344;2023-03-20T08:57:13;95638.06;;;25.66;24.45
64668;BME280;51077;42.716;23.344;2023-03-20T08:59:38;95636.22;;;25.92;24.15
64668;BME280;51077;42.716;23.344;2023-03-20T09:02:03;95637.59;;;26.15;23.91
64668;BME280;51077;42.716;23.344;2023-03-20T09:04:29;95633.97;;;26.36;23.88
64668;BME280;51077;42.716;23.344;2023-03-20T09:06:54;95633.03;;;26.54;23.47
64668;BME280;51077;42.716;23.344;2023-03-20T09:09:20;95640.13;;;26.79;23.43
64668;BME280;51077;42.716;23.344;2023-03-20T09:11:51;95625.91;;;27.00;22.83
64668;BME280;51077;42.716;23.344;2023-03-20T09:14:16;95620.00;;;27.20;22.77
64668;BME280;51077;42.716;23.344;2023-03-20T09:16:42;95612.06;;;27.42;22.45
64668;BME280;51077;42.716;23.344;2023-03-20T09:19:07;95621.28;;;27.68;22.59
64668;BME280;51077;42.716;23.344;2023-03-20T09:21:33;95611.16;;;27.88;21.92
64668;BME280;51077;42.716;23.344;2023-03-20T09:23:58;95613.97;;;28.14;21.93
64668;BME280;51077;42.716;23.344;2023-03-20T09:26:23;95607.44;;;28.37;21.76
64668;BME280;51077;42.716;23.344;2023-03-20T09:28:49;95597.94;;;28.58;21.55
64668;BME280;51077;42.716;23.344;2023-03-20T09:31:14;95593.25;;;28.76;21.64
64668;BME280;51077;42.716;23.344;2023-03-20T09:33:40;95592.81;;;28.95;21.24
64668;BME280;51077;42.716;23.344;2023-03-20T09:36:05;95595.00;;;29.11;21.01
64668;BME280;51077;42.716;23.344;2023-03-20T09:38:32;95585.97;;;29.28;20.79
64668;BME280;51077;42.716;23.344;2023-03-20T09:40:59;95586.84;;;29.46;20.70
64668;BME280;51077;42.716;23.344;2023-03-20T09:57:01;95547.84;;;30.51;19.64
64668;BME280;51077;42.716;23.344;2023-03-20T09:59:29;95544.94;;;30.65;19.30
64668;BME280;51077;42.716;23.344;2023-03-20T10:02:14;95538.34;;;30.61;19.36
64668;BME280;51077;42.716;23.344;2023-03-20T10:04:46;95531.50;;;30.66;19.63
64668;BME280;51077;42.716;23.344;2023-03-20T10:07:14;95531.13;;;30.58;19.31
64668;BME280;51077;42.716;23.344;2023-03-20T10:09:41;95520.78;;;30.64;19.37
64668;BME280;51077;42.716;23.344;2023-03-20T10:12:21;95520.88;;;30.66;19.51
64668;BME280;51077;42.716;23.344;2023-03-20T10:18:20;95507.38;;;30.98;19.01
64668;BME280;51077;42.716;23.344;2023-03-20T10:20:58;95512.81;;;31.10;19.15
64668;BME280;51077;42.716;23.344;2023-03-20T10:23:34;95502.75;;;31.25;18.97
64668;BME280;51077;42.716;23.344;2023-03-20T10:26:08;95504.50;;;31.50;18.20
64668;BME280;51077;42.716;23.344;2023-03-20T10:28:43;95493.06;;;31.66;18.22
64668;BME280;51077;42.716;23.344;2023-03-20T10:42:02;95478.28;;;32.47;17.76
64668;BME280;51077;42.716;23.344;2023-03-20T10:44:38;95470.78;;;32.56;17.60
64668;BME280;51077;42.716;23.344;2023-03-20T10:47:08;95470.44;;;32.65;17.46
64668;BME280;51077;42.716;23.344;2023-03-20T10:49:48;95470.75;;;32.75;17.53
64668;BME280;51077;42.716;23.344;2023-03-20T10:52:19;95463.38;;;32.88;17.10
64668;BME280;51077;42.716;23.344;2023-03-20T10:54:49;95453.91;;;33.03;16.97
64668;BME280;51077;42.716;23.344;2023-03-20T10:57:30;95448.03;;;33.19;16.90
64668;BME280;51077;42.716;23.344;2023-03-20T10:59:58;95443.25;;;33.26;16.93
64668;BME280;51077;42.716;23.344;2023-03-20T11:02:27;95442.84;;;33.36;17.03
64668;BME280;51077;42.716;23.344;2023-03-20T11:04:53;95445.56;;;33.54;16.83
64668;BME280;51077;42.716;23.344;2023-03-20T11:07:32;95440.44;;;33.74;16.49
64668;BME280;51077;42.716;23.344;2023-03-20T11:12:44;95432.03;;;34.02;16.81
64668;BME280;51077;42.716;23.344;2023-03-20T11:17:52;95425.00;;;34.31;16.45
64668;BME280;51077;42.716;23.344;2023-03-20T11:20:18;95415.16;;;34.36;16.46
64668;BME280;51077;42.716;23.344;2023-03-20T11:22:46;95414.03;;;34.47;16.16
64668;BME280;51077;42.716;23.344;2023-03-20T11:25:36;95407.84;;;34.55;16.17
64668;BME280;51077;42.716;23.344;2023-03-20T11:28:20;95409.44;;;34.62;16.15
64668;BME280;51077;42.716;23.344;2023-03-20T11:30:46;95397.47;;;34.68;16.14
64668;BME280;51077;42.716;23.344;2023-03-20T11:33:14;95392.66;;;34.74;16.01
64668;BME280;51077;42.716;23.344;2023-03-20T11:35:44;95383.66;;;34.86;15.95
64668;BME280;51077;42.716;23.344;2023-03-20T11:38:16;95381.25;;;35.05;15.60
64668;BME280;51077;42.716;23.344;2023-03-20T11:40:42;95376.53;;;35.15;15.28
64668;BME280;51077;42.716;23.344;2023-03-20T11:45:43;95369.97;;;35.43;15.42
64668;BME280;51077;42.716;23.344;2023-03-20T11:48:18;95361.00;;;35.55;15.25
64668;BME280;51077;42.716;23.344;2023-03-20T11:51:04;95356.72;;;35.56;15.33
64668;BME280;51077;42.716;23.344;2023-03-20T11:53:34;95345.44;;;35.62;14.89
64668;BME280;51077;42.716;23.344;2023-03-20T11:56:23;95351.22;;;35.66;15.02
64668;BME280;51077;42.716;23.344;2023-03-20T11:58:57;95339.16;;;35.69;14.65
64668;BME280;51077;42.716;23.344;2023-03-20T12:01:25;95331.53;;;35.80;14.77
64668;BME280;51077;42.716;23.344;2023-03-20T12:03:59;95332.41;;;35.89;14.44
64668;BME280;51077;42.716;23.344;2023-03-20T12:06:35;95333.13;;;35.89;14.68
64668;BME280;51077;42.716;23.344;2023-03-20T12:09:06;95321.81;;;35.95;14.43
64668;BME280;51077;42.716;23.344;2023-03-20T12:11:44;95321.78;;;35.93;14.50
64668;BME280;51077;42.716;23.344;2023-03-20T12:17:35;95312.69;;;36.03;14.24
64668;BME280;51077;42.716;23.344;2023-03-20T12:20:10;95306.34;;;36.09;14.04
64668;BME280;51077;42.716;23.344;2023-03-20T12:22:46;95302.03;;;36.06;14.69
64668;BME280;51077;42.716;23.344;2023-03-20T12:25:24;95302.22;;;36.18;14.40
64668;BME280;51077;42.716;23.344;2023-03-20T12:28:04;95306.06;;;36.33;13.93
64668;BME280;51077;42.716;23.344;2023-03-20T12:30:47;95297.88;;;36.55;13.59
64668;BME280;51077;42.716;23.344;2023-03-20T12:33:35;95294.72;;;36.39;13.25
64668;BME280;51077;42.716;23.344;2023-03-20T12:36:03;95290.25;;;36.28;13.87
64668;BME280;51077;42.716;23.344;2023-03-20T12:38:31;95288.13;;;36.28;13.43
64668;BME280;51077;42.716;23.344;2023-03-20T12:51:49;95270.06;;;36.15;14.15
64668;BME280;51077;42.716;23.344;2023-03-20T12:57:31;95262.84;;;36.12;13.65
64668;BME280;51077;42.716;23.344;2023-03-20T13:00:04;95252.84;;;36.11;14.18
64668;BME280;51077;42.716;23.344;2023-03-20T13:05:15;95254.22;;;35.70;13.91
64668;BME280;51077;42.716;23.344;2023-03-20T13:10:23;95241.25;;;35.27;13.97
64668;BME280;51077;42.716;23.344;2023-03-20T13:13:29;95238.00;;;35.08;14.40
64668;BME280;51077;42.716;23.344;2023-03-20T13:27:02;95226.41;;;34.08;15.08
64668;BME280;51077;42.716;23.344;2023-03-20T13:29:44;95221.47;;;33.82;14.80
64668;BME280;51077;42.716;23.344;2023-03-20T13:34:55;95214.69;;;33.41;15.47
64668;BME280;51077;42.716;23.344;2023-03-20T13:37:32;95214.13;;;33.21;15.58
64668;BME280;51077;42.716;23.344;2023-03-20T13:42:46;95209.31;;;32.77;15.51
64668;BME280;51077;42.716;23.344;2023-03-20T13:50:50;95190.31;;;32.14;15.69
64668;BME280;51077;42.716;23.344;2023-03-20T14:04:25;95175.38;;;30.88;16.51
64668;BME280;51077;42.716;23.344;2023-03-20T14:06:56;95175.50;;;30.72;16.44
64668;BME280;51077;42.716;23.344;2023-03-20T14:11:55;95175.69;;;30.41;16.59
64668;BME280;51077;42.716;23.344;2023-03-20T14:14:28;95166.00;;;30.28;16.82
64668;BME280;51077;42.716;23.344;2023-03-20T14:19:27;95153.84;;;30.08;16.71
64668;BME280;51077;42.716;23.344;2023-03-20T14:21:54;95154.13;;;29.96;16.84
64668;BME280;51077;42.716;23.344;2023-03-20T14:24:21;95155.75;;;29.83;16.88
64668;BME280;51077;42.716;23.344;2023-03-20T14:26:58;95158.25;;;29.75;16.99
64668;BME280;51077;42.716;23.344;2023-03-20T14:32:02;95150.16;;;29.51;17.04
64668;BME280;51077;42.716;23.344;2023-03-20T14:34:52;95141.94;;;29.40;17.36
64668;BME280;51077;42.716;23.344;2023-03-20T14:40:04;95138.91;;;29.18;17.38
64668;BME280;51077;42.716;23.344;2023-03-20T14:42:51;95144.03;;;29.05;17.45
64668;BME280;51077;42.716;23.344;2023-03-20T14:45:44;95139.91;;;28.93;17.73
64668;BME280;51077;42.716;23.344;2023-03-20T14:53:25;95140.94;;;28.52;17.27
64668;BME280;51077;42.716;23.344;2023-03-20T14:55:57;95137.38;;;28.36;17.60
64668;BME280;51077;42.716;23.344;2023-03-20T15:01:24;95137.03;;;27.98;17.74
64668;BME280;51077;42.716;23.344;2023-03-20T15:04:00;95134.06;;;27.80;18.28
64668;BME280;51077;42.716;23.344;2023-03-20T15:06:27;95133.78;;;27.60;18.02
64668;BME280;51077;42.716;23.344;2023-03-20T15:08:59;95133.63;;;27.42;18.25
64668;BME280;51077;42.716;23.344;2023-03-20T15:11:29;95135.53;;;27.24;18.28
64668;BME280;51077;42.716;23.344;2023-03-20T15:13:57;95131.78;;;27.05;18.15
64668;BME280;51077;42.716;23.344;2023-03-20T15:16:30;95139.31;;;26.87;18.62
64668;BME280;51077;42.716;23.344;2023-03-20T15:18:56;95140.53;;;26.70;18.64
64668;BME280;51077;42.716;23.344;2023-03-20T15:21:36;95136.06;;;26.51;18.74
64668;BME280;51077;42.716;23.344;2023-03-20T15:24:03;95133.81;;;26.36;18.79